Time;durP1;ratioP1;P1;durP2;ratioP2;P2;SDS_P1;SDS_P2;PMS_P1;PMS_P2;Temp;Humidity;BMP_temperature;BMP_pressure;BME280_temperature;BME280_humidity;BME280_pressure;Samples;Min_cycle;Max_cycle;Signal;HPM_P1;HPM_P2
2022/04/21 00:00:05;;;;;;;;;;;13.90;99.90;;;;;;5056321;28;19911;-76
2022/04/21 00:02:31;;;;;;;;;;;13.90;99.90;;;;;;5056210;28;20011;-76
2022/04/21 00:04:57;;;;;;;;;;;14.10;99.90;;;;;;5056338;28;19967;-77
2022/04/21 00:07:23;;;;;;;;;;;14.10;99.90;;;;;;5056297;28;20366;-77
2022/04/21 00:09:48;;;;;;;;;;;14.10;99.90;;;;;;5055954;28;20007;-76
2022/04/21 00:12:14;;;;;;;;;;;14.10;99.90;;;;;;5056099;28;19911;-77
2022/04/21 00:14:40;;;;;;;;;;;14.00;99.90;;;;;;5056034;28;19908;-76
2022/04/21 00:17:08;;;;;;;;;;;14.10;99.90;;;;;;5054614;28;20292;-77
2022/04/21 00:19:34;;;;;;;;;;;14.10;99.90;;;;;;5056113;28;19999;-77
2022/04/21 00:24:44;;;;;;;;;;;14.00;99.90;;;;;;5055584;28;19912;-77
2022/04/21 00:27:09;;;;;;;;;;;13.90;99.90;;;;;;5056027;28;19909;-76
2022/04/21 00:29:35;;;;;;;;;;;13.90;99.90;;;;;;5055723;28;19905;-76
2022/04/21 00:32:01;;;;;;;;;;;13.80;99.90;;;;;;5055794;28;19950;-77
2022/04/21 00:34:26;;;;;;;;;;;13.90;99.90;;;;;;5055631;28;19927;-77
2022/04/21 00:36:52;;;;;;;;;;;14.00;99.90;;;;;;5055406;28;19920;-76
2022/04/21 00:39:17;;;;;;;;;;;13.90;99.90;;;;;;5054255;28;20353;-75
2022/04/21 00:41:43;;;;;;;;;;;13.90;99.90;;;;;;5055691;28;19927;-76
2022/04/21 00:44:09;;;;;;;;;;;13.90;99.90;;;;;;5055518;28;19911;-76
2022/04/21 00:46:37;;;;;;;;;;;13.90;99.90;;;;;;5054065;28;19911;-76
2022/04/21 00:49:03;;;;;;;;;;;13.90;99.90;;;;;;5054086;28;19908;-77
2022/04/21 00:51:29;;;;;;;;;;;13.80;99.90;;;;;;5055310;28;19912;-77
2022/04/21 00:53:55;;;;;;;;;;;13.90;99.90;;;;;;5054238;28;20379;-76
2022/04/21 00:56:21;;;;;;;;;;;14.00;99.90;;;;;;5055615;28;19905;-76
2022/04/21 00:58:47;;;;;;;;;;;14.00;99.90;;;;;;5053852;28;19908;-78
2022/04/21 01:03:57;;;;;;;;;;;13.80;99.90;;;;;;5054829;28;19999;-77
2022/04/21 01:06:23;;;;;;;;;;;13.70;99.90;;;;;;5052501;28;19912;-77
2022/04/21 01:08:48;;;;;;;;;;;13.70;99.90;;;;;;5053596;28;19909;-77
2022/04/21 01:11:16;;;;;;;;;;;13.70;99.90;;;;;;5054761;28;19908;-77
2022/04/21 01:13:42;;;;;;;;;;;13.70;99.90;;;;;;5054940;28;20003;-77
2022/04/21 01:16:07;;;;;;;;;;;13.60;99.90;;;;;;5054779;28;19955;-77
2022/04/21 01:18:34;;;;;;;;;;;13.60;99.90;;;;;;5054745;28;19905;-77
2022/04/21 01:20:59;;;;;;;;;;;13.60;99.90;;;;;;5054958;28;20494;-75
2022/04/21 01:23:25;;;;;;;;;;;13.60;99.90;;;;;;5054661;28;19959;-78
2022/04/21 01:25:51;;;;;;;;;;;13.50;99.90;;;;;;5054598;28;19950;-76
2022/04/21 01:28:17;;;;;;;;;;;13.60;99.90;;;;;;5053291;28;19966;-77
2022/04/21 01:30:43;;;;;;;;;;;13.60;99.90;;;;;;5054617;28;19913;-77
2022/04/21 01:33:09;;;;;;;;;;;13.40;99.90;;;;;;5054498;28;20356;-76
2022/04/21 01:35:35;;;;;;;;;;;13.40;99.90;;;;;;5052988;28;19966;-77
2022/04/21 01:43:29;;;;;;;;;;;13.50;99.90;;;;;;5054072;28;19912;-77
2022/04/21 01:45:55;;;;;;;;;;;13.50;99.90;;;;;;5054249;28;19905;-77
2022/04/21 01:48:20;;;;;;;;;;;13.50;99.90;;;;;;5054170;28;19913;-76
2022/04/21 01:50:46;;;;;;;;;;;13.30;99.90;;;;;;5054062;28;20407;-76
2022/04/21 01:53:11;;;;;;;;;;;13.30;99.90;;;;;;5054113;28;19911;-77
2022/04/21 01:55:37;;;;;;;;;;;13.30;99.90;;;;;;5054064;28;20003;-75
2022/04/21 01:58:03;;;;;;;;;;;13.30;99.90;;;;;;5054067;28;20365;-77
2022/04/21 02:00:28;;;;;;;;;;;13.20;99.90;;;;;;5054243;28;19904;-76
2022/04/21 02:02:54;;;;;;;;;;;13.30;99.90;;;;;;5054071;28;19904;-75
2022/04/21 02:05:20;;;;;;;;;;;13.40;99.90;;;;;;5053957;28;19915;-76
2022/04/21 02:07:45;;;;;;;;;;;13.50;99.90;;;;;;5052577;28;19905;-76
2022/04/21 02:10:12;;;;;;;;;;;13.50;99.90;;;;;;5053853;28;19909;-77
2022/04/21 02:12:38;;;;;;;;;;;13.40;99.90;;;;;;5053817;28;19908;-76
2022/04/21 02:15:04;;;;;;;;;;;13.50;99.90;;;;;;5052441;28;20042;-77
2022/04/21 02:17:31;;;;;;;;;;;13.60;99.90;;;;;;5053342;28;19916;-77
2022/04/21 02:19:57;;;;;;;;;;;13.50;99.90;;;;;;5053703;28;19999;-76
2022/04/21 02:22:22;;;;;;;;;;;13.50;99.90;;;;;;5053701;28;20001;-76
2022/04/21 02:24:48;;;;;;;;;;;13.60;99.90;;;;;;5053915;28;19905;-76
2022/04/21 02:27:14;;;;;;;;;;;13.60;99.90;;;;;;5053663;28;19905;-77
2022/04/21 02:29:39;;;;;;;;;;;13.60;99.90;;;;;;5053471;28;19913;-76
2022/04/21 02:32:05;;;;;;;;;;;13.50;99.90;;;;;;5053503;28;19911;-77
2022/04/21 02:34:31;;;;;;;;;;;13.50;99.90;;;;;;5053497;28;19911;-77
2022/04/21 02:36:56;;;;;;;;;;;13.40;99.90;;;;;;5053294;28;19952;-77
2022/04/21 02:39:22;;;;;;;;;;;13.40;99.90;;;;;;5052158;28;19909;-76
2022/04/21 02:41:48;;;;;;;;;;;13.50;99.90;;;;;;5053405;28;19958;-76
2022/04/21 02:44:13;;;;;;;;;;;13.40;99.90;;;;;;5053649;28;19911;-76
2022/04/21 02:46:39;;;;;;;;;;;13.30;99.90;;;;;;5053506;28;19958;-77
2022/04/21 02:49:04;;;;;;;;;;;13.40;99.90;;;;;;5053441;28;19905;-76
2022/04/21 02:51:31;;;;;;;;;;;13.60;99.90;;;;;;5053357;28;20311;-77
2022/04/21 02:59:26;;;;;;;;;;;13.60;99.90;;;;;;5053023;28;19963;-75
2022/04/21 03:01:52;;;;;;;;;;;13.60;99.90;;;;;;5051907;28;19905;-76
2022/04/21 03:04:17;;;;;;;;;;;13.60;99.90;;;;;;5053450;28;19905;-76
2022/04/21 03:06:43;;;;;;;;;;;13.60;99.90;;;;;;5051910;28;19912;-76
2022/04/21 03:09:08;;;;;;;;;;;13.60;99.90;;;;;;5053302;28;19961;-76
2022/04/21 03:11:34;;;;;;;;;;;13.70;99.90;;;;;;5051720;28;19916;-76
2022/04/21 03:13:59;;;;;;;;;;;13.60;99.90;;;;;;5053124;28;19994;-78
2022/04/21 03:16:25;;;;;;;;;;;13.50;99.90;;;;;;5051796;28;20360;-78
2022/04/21 03:18:50;;;;;;;;;;;13.50;99.90;;;;;;5053105;28;19908;-77
2022/04/21 03:26:45;;;;;;;;;;;13.20;99.90;;;;;;5052771;28;19912;-76
2022/04/21 03:29:10;;;;;;;;;;;13.20;99.90;;;;;;5054418;28;19959;-76
2022/04/21 03:31:36;;;;;;;;;;;13.20;99.90;;;;;;5056749;28;20365;-76
2022/04/21 03:34:04;;;;;;;;;;;13.20;99.90;;;;;;5056710;28;19991;-77
2022/04/21 03:36:31;;;;;;;;;;;13.20;99.90;;;;;;5055157;28;19917;-76
2022/04/21 03:38:56;;;;;;;;;;;13.30;99.90;;;;;;5056768;28;19911;-76
2022/04/21 03:41:22;;;;;;;;;;;13.30;99.90;;;;;;5056725;28;19905;-76
2022/04/21 03:43:48;;;;;;;;;;;13.40;99.90;;;;;;5056536;28;19909;-76
2022/04/21 03:46:13;;;;;;;;;;;13.40;99.90;;;;;;5056719;28;20269;-76
2022/04/21 03:48:39;;;;;;;;;;;13.40;99.90;;;;;;5056620;28;19947;-76
2022/04/21 03:51:05;;;;;;;;;;;13.30;99.90;;;;;;5056414;28;20324;-76
2022/04/21 03:53:30;;;;;;;;;;;13.40;99.90;;;;;;5056340;28;19905;-75
2022/04/21 03:55:57;;;;;;;;;;;13.40;99.90;;;;;;5056539;28;19958;-75
2022/04/21 03:58:22;;;;;;;;;;;13.10;99.90;;;;;;5056547;28;19909;-75
2022/04/21 04:00:48;;;;;;;;;;;13.10;99.90;;;;;;5056228;28;19912;-76
2022/04/21 04:03:14;;;;;;;;;;;13.20;99.90;;;;;;5054881;28;19905;-76
2022/04/21 04:05:40;;;;;;;;;;;13.20;99.90;;;;;;5056584;28;19908;-75
2022/04/21 04:10:52;;;;;;;;;;;13.20;99.90;;;;;;5056040;28;19963;-77
2022/04/21 04:13:22;;;;;;;;;;;13.20;99.90;;;;;;5056045;28;19908;-74
2022/04/21 04:15:51;;;;;;;;;;;13.00;99.90;;;;;;5055982;28;19912;-76
2022/04/21 04:18:17;;;;;;;;;;;12.90;99.90;;;;;;5055868;28;19912;-75
2022/04/21 04:20:43;;;;;;;;;;;12.90;99.90;;;;;;5055991;28;19999;-78
2022/04/21 04:23:09;;;;;;;;;;;12.90;99.90;;;;;;5054469;28;20377;-76
2022/04/21 04:25:35;;;;;;;;;;;12.80;99.90;;;;;;5055770;28;19990;-76
2022/04/21 04:28:03;;;;;;;;;;;12.60;99.90;;;;;;5055729;28;19916;-76
2022/04/21 04:30:29;;;;;;;;;;;12.60;99.90;;;;;;5054316;28;19909;-76
2022/04/21 04:32:54;;;;;;;;;;;12.70;99.90;;;;;;5055587;28;19904;-77
2022/04/21 04:35:21;;;;;;;;;;;12.90;99.90;;;;;;5055286;28;19912;-75
2022/04/21 04:37:46;;;;;;;;;;;12.90;99.90;;;;;;5055769;28;19950;-77
2022/04/21 04:40:13;;;;;;;;;;;13.00;99.90;;;;;;5055199;28;20319;-76
2022/04/21 04:42:38;;;;;;;;;;;13.00;99.90;;;;;;5055609;28;19995;-76
2022/04/21 04:47:48;;;;;;;;;;;12.90;99.90;;;;;;5055287;28;20007;-77
2022/04/21 04:50:14;;;;;;;;;;;12.90;99.90;;;;;;5055259;28;19960;-77
2022/04/21 04:52:39;;;;;;;;;;;12.90;99.90;;;;;;5055287;28;19924;-77
2022/04/21 04:55:09;;;;;;;;;;;12.90;99.90;;;;;;5055459;28;20325;-76
2022/04/21 04:57:35;;;;;;;;;;;12.80;99.90;;;;;;5055194;28;19908;-76
2022/04/21 05:00:01;;;;;;;;;;;12.90;99.90;;;;;;5055104;28;20384;-76
2022/04/21 05:02:26;;;;;;;;;;;12.90;99.90;;;;;;5055628;28;19948;-77
2022/04/21 05:04:52;;;;;;;;;;;12.90;99.90;;;;;;5055424;28;19905;-77
2022/04/21 05:07:18;;;;;;;;;;;13.00;99.90;;;;;;5055009;28;20303;-76
2022/04/21 05:09:43;;;;;;;;;;;13.00;99.90;;;;;;5054965;28;19928;-76
2022/04/21 05:12:09;;;;;;;;;;;12.90;99.90;;;;;;5053545;28;20332;-77
2022/04/21 05:14:36;;;;;;;;;;;12.90;99.90;;;;;;5055255;28;19909;-76
2022/04/21 05:17:02;;;;;;;;;;;12.90;99.90;;;;;;5053477;28;19905;-75
2022/04/21 05:19:28;;;;;;;;;;;12.70;99.90;;;;;;5054703;28;20004;-77
2022/04/21 05:21:53;;;;;;;;;;;12.60;99.90;;;;;;5054853;28;20003;-76
2022/04/21 05:24:19;;;;;;;;;;;12.70;99.90;;;;;;5054748;28;19911;-77
2022/04/21 05:26:45;;;;;;;;;;;12.80;99.90;;;;;;5054502;28;19915;-77
2022/04/21 05:31:58;;;;;;;;;;;13.00;99.90;;;;;;5054625;28;20391;-76
2022/04/21 05:34:25;;;;;;;;;;;13.20;99.90;;;;;;5053114;28;19905;-77
2022/04/21 05:36:51;;;;;;;;;;;13.20;99.90;;;;;;5053900;28;19923;-78
2022/04/21 05:39:17;;;;;;;;;;;13.10;99.90;;;;;;5054735;28;20011;-76
2022/04/21 05:41:43;;;;;;;;;;;13.30;99.90;;;;;;5054449;28;19924;-76
2022/04/21 05:44:10;;;;;;;;;;;13.40;99.90;;;;;;5054101;28;20254;-77
2022/04/21 05:46:36;;;;;;;;;;;13.40;99.90;;;;;;5053938;28;19991;-76
2022/04/21 05:49:01;;;;;;;;;;;13.30;99.90;;;;;;5054200;28;19974;-77
2022/04/21 05:51:27;;;;;;;;;;;13.40;99.90;;;;;;5053472;28;19919;-75
2022/04/21 05:53:53;;;;;;;;;;;13.40;99.90;;;;;;5054072;28;19911;-77
2022/04/21 05:56:18;;;;;;;;;;;13.50;99.90;;;;;;5054370;28;19904;-76
2022/04/21 05:58:44;;;;;;;;;;;13.50;99.90;;;;;;5054228;28;19974;-76
2022/04/21 06:01:10;;;;;;;;;;;13.50;99.90;;;;;;5053999;28;19916;-76
2022/04/21 06:03:37;;;;;;;;;;;13.70;99.90;;;;;;5053940;28;19955;-76
2022/04/21 06:06:03;;;;;;;;;;;13.80;99.90;;;;;;5054076;28;19904;-77
2022/04/21 06:08:29;;;;;;;;;;;13.90;99.90;;;;;;5053831;28;20280;-75
2022/04/21 06:10:58;;;;;;;;;;;13.90;99.90;;;;;;5053657;28;19908;-77
2022/04/21 06:13:26;;;;;;;;;;;14.00;99.90;;;;;;5052495;28;19908;-75
2022/04/21 06:15:53;;;;;;;;;;;14.10;99.90;;;;;;5052424;28;20289;-76
2022/04/21 06:18:19;;;;;;;;;;;14.30;99.90;;;;;;5053948;28;19958;-75
2022/04/21 06:20:46;;;;;;;;;;;14.30;99.90;;;;;;5052374;28;19905;-76
2022/04/21 06:23:12;;;;;;;;;;;14.40;99.90;;;;;;5053670;28;19928;-78
2022/04/21 06:25:38;;;;;;;;;;;14.40;99.90;;;;;;5053631;28;19905;-78
2022/04/21 06:28:04;;;;;;;;;;;14.40;99.90;;;;;;5053566;28;19905;-77
2022/04/21 06:30:30;;;;;;;;;;;14.40;99.90;;;;;;5053621;28;20000;-76
2022/04/21 06:32:55;;;;;;;;;;;14.70;99.90;;;;;;5053658;28;19904;-76
2022/04/21 06:35:21;;;;;;;;;;;14.90;99.90;;;;;;5053388;28;19905;-77
2022/04/21 06:37:47;;;;;;;;;;;15.10;99.90;;;;;;5053819;28;19908;-77
2022/04/21 06:40:14;;;;;;;;;;;15.40;99.90;;;;;;5053449;28;19978;-77
2022/04/21 06:42:42;;;;;;;;;;;15.50;99.90;;;;;;5053471;28;19904;-76
2022/04/21 06:48:04;;;;;;;;;;;15.90;99.90;;;;;;5053688;28;19913;-75
2022/04/21 06:50:34;;;;;;;;;;;16.50;99.90;;;;;;5053533;28;19921;-76
2022/04/21 06:53:00;;;;;;;;;;;16.90;99.90;;;;;;5052056;28;19904;-76
2022/04/21 06:55:26;;;;;;;;;;;17.40;99.90;;;;;;5053329;28;19905;-76
2022/04/21 06:57:52;;;;;;;;;;;17.60;99.90;;;;;;5053281;28;20256;-76
2022/04/21 07:00:17;;;;;;;;;;;17.80;99.90;;;;;;5053273;28;19905;-77
2022/04/21 07:02:43;;;;;;;;;;;18.00;99.90;;;;;;5053761;28;19904;-76
2022/04/21 07:05:10;;;;;;;;;;;17.90;99.90;;;;;;5056001;28;19904;-76
2022/04/21 07:07:36;;;;;;;;;;;17.90;99.90;;;;;;5057341;28;19999;-77
2022/04/21 07:10:01;;;;;;;;;;;17.90;99.90;;;;;;5057073;28;20420;-76
2022/04/21 07:12:27;;;;;;;;;;;18.00;99.90;;;;;;5057159;28;19905;-77
2022/04/21 07:14:55;;;;;;;;;;;17.90;99.90;;;;;;5057122;28;19905;-76
2022/04/21 07:17:21;;;;;;;;;;;17.70;99.90;;;;;;5057148;28;19905;-77
2022/04/21 07:19:48;;;;;;;;;;;17.40;99.90;;;;;;5055623;28;19995;-76
2022/04/21 07:22:13;;;;;;;;;;;17.40;99.90;;;;;;5055685;28;19959;-77
2022/04/21 07:24:39;;;;;;;;;;;17.70;99.90;;;;;;5057366;28;19909;-77
2022/04/21 07:27:04;;;;;;;;;;;18.10;99.90;;;;;;5055884;28;19999;-77
2022/04/21 07:29:30;;;;;;;;;;;18.00;99.90;;;;;;5056853;28;20345;-76
2022/04/21 07:31:56;;;;;;;;;;;18.10;99.90;;;;;;5056761;28;19909;-77
2022/04/21 07:34:23;;;;;;;;;;;18.20;99.90;;;;;;5056775;28;19911;-77
2022/04/21 07:36:49;;;;;;;;;;;18.40;99.90;;;;;;5055239;28;20288;-78
2022/04/21 07:39:15;;;;;;;;;;;18.60;99.90;;;;;;5056810;28;19991;-75
2022/04/21 07:41:41;;;;;;;;;;;18.60;99.90;;;;;;5056739;28;19940;-76
2022/04/21 07:44:07;;;;;;;;;;;18.60;99.90;;;;;;5056593;28;20399;-76
2022/04/21 07:46:33;;;;;;;;;;;18.80;99.90;;;;;;5056537;28;19932;-76
2022/04/21 07:51:43;;;;;;;;;;;18.70;99.90;;;;;;5056297;28;20027;-78
2022/04/21 07:54:09;;;;;;;;;;;18.60;99.90;;;;;;5056426;28;19909;-76
2022/04/21 07:56:35;;;;;;;;;;;18.30;99.90;;;;;;5056362;28;20284;-78
2022/04/21 07:59:00;;;;;;;;;;;18.70;99.90;;;;;;5056321;28;19954;-78
2022/04/21 08:01:26;;;;;;;;;;;19.10;99.90;;;;;;5056314;28;20371;-77
2022/04/21 08:03:52;;;;;;;;;;;19.90;99.90;;;;;;5056222;28;19904;-75
2022/04/21 08:06:17;;;;;;;;;;;20.90;99.90;;;;;;5056234;28;19928;-77
2022/04/21 08:08:43;;;;;;;;;;;21.90;99.90;;;;;;5054829;28;20042;-77
2022/04/21 08:11:09;;;;;;;;;;;22.60;98.40;;;;;;5056170;28;19915;-77
2022/04/21 08:13:34;;;;;;;;;;;23.00;96.90;;;;;;5056088;28;19911;-76
2022/04/21 08:16:00;;;;;;;;;;;23.20;93.00;;;;;;5055316;28;19909;-77
2022/04/21 08:18:26;;;;;;;;;;;23.10;92.00;;;;;;5056037;28;19905;-78
2022/04/21 08:20:57;;;;;;;;;;;23.30;91.30;;;;;;5055876;28;20288;-77
2022/04/21 08:23:26;;;;;;;;;;;23.60;91.80;;;;;;5056295;28;19959;-78
2022/04/21 08:34:04;;;;;;;;;;;25.70;80.90;;;;;;5055619;28;19911;-78
2022/04/21 08:36:30;;;;;;;;;;;27.10;75.90;;;;;;5055550;28;19917;-78
2022/04/21 08:38:56;;;;;;;;;;;27.60;72.10;;;;;;5055777;28;20361;-77
2022/04/21 08:41:26;;;;;;;;;;;28.40;68.20;;;;;;5055692;28;19986;-78
2022/04/21 08:43:53;;;;;;;;;;;28.60;64.80;;;;;;5056205;28;19911;-78
2022/04/21 08:46:24;;;;;;;;;;;29.40;64.70;;;;;;5055765;28;19912;-77
2022/04/21 08:48:50;;;;;;;;;;;29.30;62.10;;;;;;5055640;28;19909;-78
2022/04/21 08:51:17;;;;;;;;;;;29.70;60.50;;;;;;5055452;28;19963;-77
2022/04/21 08:53:43;;;;;;;;;;;30.10;59.00;;;;;;5055339;28;19905;-78
2022/04/21 08:56:10;;;;;;;;;;;30.20;57.70;;;;;;5055318;28;19905;-77
2022/04/21 08:58:35;;;;;;;;;;;30.70;55.90;;;;;;5055396;28;20393;-77
2022/04/21 09:01:01;;;;;;;;;;;30.10;57.40;;;;;;5055462;28;19904;-78
2022/04/21 09:03:26;;;;;;;;;;;31.20;56.60;;;;;;5055209;28;20331;-77
2022/04/21 09:05:52;;;;;;;;;;;31.70;54.50;;;;;;5055525;28;19905;-77
2022/04/21 09:08:20;;;;;;;;;;;32.10;53.70;;;;;;5055366;28;19905;-77
2022/04/21 09:10:47;;;;;;;;;;;32.90;52.00;;;;;;5053557;28;19909;-79
2022/04/21 09:13:12;;;;;;;;;;;33.60;49.80;;;;;;5055051;28;19911;-78
2022/04/21 09:15:43;;;;;;;;;;;33.20;48.30;;;;;;5053656;28;19905;-78
2022/04/21 09:18:12;;;;;;;;;;;33.50;47.80;;;;;;5055038;28;20287;-79
2022/04/21 09:20:39;;;;;;;;;;;34.60;46.60;;;;;;5055011;28;19905;-78
2022/04/21 09:23:11;;;;;;;;;;;35.00;44.60;;;;;;5054824;28;19963;-79
2022/04/21 09:25:46;;;;;;;;;;;35.30;43.50;;;;;;5055016;28;19905;-77
2022/04/21 09:28:25;;;;;;;;;;;36.00;42.30;;;;;;5054028;28;19958;-79
2022/04/21 09:30:52;;;;;;;;;;;35.30;42.70;;;;;;5054602;28;19912;-78
2022/04/21 09:33:27;;;;;;;;;;;36.20;42.60;;;;;;5054630;28;20386;-78
2022/04/21 09:35:53;;;;;;;;;;;37.10;41.50;;;;;;5054418;28;19908;-78
2022/04/21 09:38:19;;;;;;;;;;;37.80;40.30;;;;;;5054710;28;19935;-78
2022/04/21 09:40:44;;;;;;;;;;;38.40;38.70;;;;;;5054459;28;19958;-77
2022/04/21 09:43:10;;;;;;;;;;;37.60;38.40;;;;;;5054428;28;20273;-75
2022/04/21 09:48:26;;;;;;;;;;;35.90;36.60;;;;;;5054416;28;19954;-75
2022/04/21 09:50:56;;;;;;;;;;;36.10;37.90;;;;;;5052840;28;20019;-77
2022/04/21 09:53:23;;;;;;;;;;;36.20;37.90;;;;;;5054127;28;19905;-75
2022/04/21 09:55:49;;;;;;;;;;;36.60;37.40;;;;;;5054384;28;19955;-75
2022/04/21 09:58:15;;;;;;;;;;;38.40;36.50;;;;;;5054281;28;19905;-74
2022/04/21 10:00:44;;;;;;;;;;;41.30;36.10;;;;;;5054102;28;19905;-76
2022/04/21 10:03:10;;;;;;;;;;;42.50;33.90;;;;;;5054079;28;19999;-75
2022/04/21 10:05:36;;;;;;;;;;;41.50;32.80;;;;;;5054542;28;20298;-78
2022/04/21 10:08:03;;;;;;;;;;;41.40;32.00;;;;;;5054185;28;20392;-76
2022/04/21 10:10:29;;;;;;;;;;;43.60;32.60;;;;;;5052495;28;19916;-76
2022/04/21 10:12:55;;;;;;;;;;;43.40;33.00;;;;;;5053940;28;19990;-76
2022/04/21 10:15:21;;;;;;;;;;;43.40;30.80;;;;;;5054032;28;19905;-76
2022/04/21 10:17:47;;;;;;;;;;;43.60;31.40;;;;;;5053852;28;19912;-76
2022/04/21 10:20:12;;;;;;;;;;;44.30;31.60;;;;;;5054207;28;19909;-76
2022/04/21 10:22:38;;;;;;;;;;;43.90;30.80;;;;;;5053796;28;19904;-76
2022/04/21 10:25:06;;;;;;;;;;;44.10;31.30;;;;;;5054310;28;19946;-77
2022/04/21 10:27:46;;;;;;;;;;;44.60;30.10;;;;;;5053708;28;19905;-75
2022/04/21 10:30:13;;;;;;;;;;;45.40;29.80;;;;;;5053897;28;19931;-75
2022/04/21 10:32:45;;;;;;;;;;;44.60;29.30;;;;;;5053630;28;20292;-74
2022/04/21 10:35:23;;;;;;;;;;;43.90;30.00;;;;;;5053616;28;19932;-77
2022/04/21 10:38:09;;;;;;;;;;;44.20;30.90;;;;;;5051793;28;19913;-76
2022/04/21 10:40:53;;;;;;;;;;;44.70;30.40;;;;;;5046242;28;19927;-75
2022/04/21 10:43:19;;;;;;;;;;;44.90;29.90;;;;;;5053725;28;19908;-76
2022/04/21 10:46:01;;;;;;;;;;;44.60;29.50;;;;;;5053487;28;19932;-76
2022/04/21 10:48:39;;;;;;;;;;;43.70;29.30;;;;;;5053474;28;19912;-76
2022/04/21 10:51:05;;;;;;;;;;;44.00;29.80;;;;;;5053592;28;19920;-77
2022/04/21 10:59:24;;;;;;;;;;;43.20;29.50;;;;;;5053267;28;19959;-75
2022/04/21 11:01:53;;;;;;;;;;;43.60;29.80;;;;;;5053593;28;19948;-74
2022/04/21 11:04:20;;;;;;;;;;;42.50;29.60;;;;;;5053362;28;19999;-75
2022/04/21 11:06:51;;;;;;;;;;;42.60;30.10;;;;;;5053322;28;19954;-77
2022/04/21 11:09:35;;;;;;;;;;;42.50;30.00;;;;;;5053272;28;19912;-78
2022/04/21 11:12:01;;;;;;;;;;;42.50;30.30;;;;;;5053234;28;20369;-75
2022/04/21 11:14:27;;;;;;;;;;;43.70;30.10;;;;;;5053175;28;19911;-77
2022/04/21 11:16:53;;;;;;;;;;;43.50;30.00;;;;;;5053462;28;19909;-75
2022/04/21 11:19:37;;;;;;;;;;;43.20;29.60;;;;;;5053518;28;20319;-76
2022/04/21 11:22:07;;;;;;;;;;;43.10;30.20;;;;;;5051895;28;19905;-76
2022/04/21 11:24:51;;;;;;;;;;;45.00;29.90;;;;;;5053152;28;19911;-76
2022/04/21 11:27:17;;;;;;;;;;;45.50;29.70;;;;;;5053124;28;19905;-74
2022/04/21 11:29:44;;;;;;;;;;;45.00;29.70;;;;;;5051868;28;19912;-74
2022/04/21 11:32:14;;;;;;;;;;;44.70;29.20;;;;;;5053096;28;19957;-77
2022/04/21 11:34:39;;;;;;;;;;;45.70;29.70;;;;;;5053470;28;20328;-76
2022/04/21 11:37:06;;;;;;;;;;;46.10;29.80;;;;;;5052906;28;19912;-75
2022/04/21 11:39:37;;;;;;;;;;;45.30;29.10;;;;;;5053016;28;20270;-76
2022/04/21 11:42:03;;;;;;;;;;;44.60;29.60;;;;;;5051479;28;20280;-75
2022/04/21 11:44:28;;;;;;;;;;;45.10;29.60;;;;;;5052969;28;19905;-76
2022/04/21 11:46:54;;;;;;;;;;;44.40;28.50;;;;;;5052961;28;19905;-76
2022/04/21 11:49:19;;;;;;;;;;;45.10;28.60;;;;;;5052950;28;19905;-75
2022/04/21 11:51:51;;;;;;;;;;;45.60;28.80;;;;;;5056371;28;19917;-77
2022/04/21 11:54:17;;;;;;;;;;;47.20;28.30;;;;;;5056644;28;19970;-76
2022/04/21 11:56:48;;;;;;;;;;;46.30;28.50;;;;;;5055186;28;20369;-75
2022/04/21 11:59:14;;;;;;;;;;;46.30;28.40;;;;;;5056435;28;19911;-74
2022/04/21 12:07:15;;;;;;;;;;;47.10;27.80;;;;;;5056518;28;19926;-75
2022/04/21 12:09:41;;;;;;;;;;;48.50;28.20;;;;;;5056365;28;19991;-75
2022/04/21 12:12:08;;;;;;;;;;;49.00;28.20;;;;;;5056347;28;19912;-74
2022/04/21 12:14:34;;;;;;;;;;;49.40;27.80;;;;;;5056039;28;19947;-76
2022/04/21 12:17:04;;;;;;;;;;;48.30;27.30;;;;;;5054815;28;19905;-75
2022/04/21 12:19:32;;;;;;;;;;;47.90;27.50;;;;;;5056279;28;19908;-74
2022/04/21 12:21:58;;;;;;;;;;;48.20;27.40;;;;;;5055933;28;20003;-77
2022/04/21 12:24:29;;;;;;;;;;;50.30;27.40;;;;;;5055886;28;20352;-76
2022/04/21 12:26:54;;;;;;;;;;;50.40;27.30;;;;;;5056069;28;19905;-77
2022/04/21 12:29:21;;;;;;;;;;;49.00;27.40;;;;;;5055842;28;20007;-77
2022/04/21 12:31:53;;;;;;;;;;;50.60;27.60;;;;;;5055767;28;20042;-76
2022/04/21 12:34:27;;;;;;;;;;;51.70;27.80;;;;;;5055785;28;19904;-76
2022/04/21 12:36:53;;;;;;;;;;;49.30;26.60;;;;;;5055624;28;20007;-75
2022/04/21 12:39:19;;;;;;;;;;;50.50;27.70;;;;;;5055638;28;20325;-76
2022/04/21 12:41:45;;;;;;;;;;;53.30;26.80;;;;;;5055576;28;19967;-77
2022/04/21 12:44:11;;;;;;;;;;;51.80;26.40;;;;;;5054350;28;19905;-75
2022/04/21 12:46:37;;;;;;;;;;;49.20;26.70;;;;;;5055559;28;20361;-76
2022/04/21 12:49:02;;;;;;;;;;;48.10;26.50;;;;;;5055891;28;19905;-77
2022/04/21 12:51:28;;;;;;;;;;;49.30;27.10;;;;;;5055760;28;20277;-76
2022/04/21 12:53:57;;;;;;;;;;;52.60;27.10;;;;;;5055618;28;19904;-76
2022/04/21 12:56:34;;;;;;;;;;;52.20;26.90;;;;;;5055429;28;20277;-77
2022/04/21 12:59:00;;;;;;;;;;;51.00;26.50;;;;;;5055319;28;20272;-75
2022/04/21 13:01:26;;;;;;;;;;;49.90;26.80;;;;;;5055287;28;19908;-75
2022/04/21 13:03:51;;;;;;;;;;;49.80;26.80;;;;;;5053930;28;19905;-76
2022/04/21 13:06:27;;;;;;;;;;;51.00;26.40;;;;;;5055270;28;19912;-75
2022/04/21 13:08:53;;;;;;;;;;;50.30;26.10;;;;;;5055121;28;19904;-76
2022/04/21 13:11:19;;;;;;;;;;;44.80;25.90;;;;;;5054948;28;19974;-77
2022/04/21 13:13:44;;;;;;;;;;;40.60;28.50;;;;;;5055202;28;20288;-78
2022/04/21 13:16:10;;;;;;;;;;;40.40;29.50;;;;;;5055023;28;19915;-79
2022/04/21 13:18:36;;;;;;;;;;;44.20;28.40;;;;;;5054980;28;19912;-79
2022/04/21 13:23:47;;;;;;;;;;;49.00;27.00;;;;;;5043984;28;19912;-78
2022/04/21 13:26:12;;;;;;;;;;;48.50;26.10;;;;;;5055079;28;19904;-78
2022/04/21 13:28:38;;;;;;;;;;;47.90;26.50;;;;;;5054915;28;19905;-79
2022/04/21 13:33:48;;;;;;;;;;;47.70;26.80;;;;;;5054433;28;19943;-78
2022/04/21 13:36:13;;;;;;;;;;;48.00;26.60;;;;;;5054433;28;19955;-80
2022/04/21 13:38:39;;;;;;;;;;;44.90;26.00;;;;;;5054584;28;19911;-78
2022/04/21 13:41:05;;;;;;;;;;;47.70;26.70;;;;;;5054461;28;19912;-78
2022/04/21 13:43:30;;;;;;;;;;;46.30;26.30;;;;;;5054461;28;19912;-78
2022/04/21 13:45:57;;;;;;;;;;;46.20;26.50;;;;;;5054458;28;19999;-78
2022/04/21 13:48:23;;;;;;;;;;;48.00;26.70;;;;;;5054410;28;19911;-79
2022/04/21 13:50:48;;;;;;;;;;;47.80;26.20;;;;;;5054264;28;19904;-78
2022/04/21 13:53:14;;;;;;;;;;;46.40;26.30;;;;;;5054612;28;19904;-77
2022/04/21 13:55:39;;;;;;;;;;;45.90;26.70;;;;;;5052932;28;20399;-77
2022/04/21 13:58:05;;;;;;;;;;;43.70;26.60;;;;;;5054196;28;19905;-78
2022/04/21 14:00:30;;;;;;;;;;;42.30;26.40;;;;;;5054048;28;19959;-77
2022/04/21 14:02:56;;;;;;;;;;;41.30;26.60;;;;;;5054527;28;19904;-78
2022/04/21 14:05:22;;;;;;;;;;;41.60;26.90;;;;;;5054410;28;19904;-77
2022/04/21 14:07:48;;;;;;;;;;;40.50;26.80;;;;;;5054189;28;19905;-77
2022/04/21 14:10:14;;;;;;;;;;;39.60;26.60;;;;;;5054079;28;20273;-79
2022/04/21 14:12:41;;;;;;;;;;;41.20;26.60;;;;;;5053520;28;19905;-77
2022/04/21 14:15:07;;;;;;;;;;;42.00;26.30;;;;;;5052629;28;20353;-77
2022/04/21 14:17:33;;;;;;;;;;;41.80;26.50;;;;;;5053907;28;19940;-78
2022/04/21 14:19:59;;;;;;;;;;;40.60;26.40;;;;;;5053818;28;19998;-77
2022/04/21 14:22:25;;;;;;;;;;;39.40;27.10;;;;;;5053854;28;19905;-77
2022/04/21 14:24:52;;;;;;;;;;;38.30;26.60;;;;;;5052458;28;19909;-78
2022/04/21 14:27:18;;;;;;;;;;;37.50;27.00;;;;;;5053765;28;19940;-77
2022/04/21 14:29:45;;;;;;;;;;;38.50;27.30;;;;;;5054090;28;19959;-77
2022/04/21 14:32:11;;;;;;;;;;;39.30;26.80;;;;;;5053847;28;19905;-77
2022/04/21 14:34:37;;;;;;;;;;;39.50;27.20;;;;;;5053790;28;19927;-78
2022/04/21 14:37:06;;;;;;;;;;;39.00;27.30;;;;;;5053467;28;19920;-77
2022/04/21 14:45:01;;;;;;;;;;;39.10;27.30;;;;;;5053289;28;19996;-77
2022/04/21 14:47:27;;;;;;;;;;;38.90;27.80;;;;;;5053896;28;19948;-76
2022/04/21 14:49:53;;;;;;;;;;;38.20;27.50;;;;;;5053628;28;20292;-79
2022/04/21 14:52:19;;;;;;;;;;;38.90;27.80;;;;;;5053508;28;19904;-77
2022/04/21 14:54:45;;;;;;;;;;;38.40;27.90;;;;;;5052235;28;19958;-76
2022/04/21 14:57:10;;;;;;;;;;;37.50;28.10;;;;;;5053454;28;19913;-79
2022/04/21 14:59:36;;;;;;;;;;;36.50;28.10;;;;;;5053830;28;19904;-78
2022/04/21 15:02:02;;;;;;;;;;;35.30;29.00;;;;;;5053456;28;19909;-78
2022/04/21 15:04:28;;;;;;;;;;;34.00;29.70;;;;;;5053426;28;20313;-77
2022/04/21 15:06:54;;;;;;;;;;;33.30;30.30;;;;;;5053498;28;20356;-77
2022/04/21 15:09:20;;;;;;;;;;;32.70;29.90;;;;;;5053342;28;19904;-77
2022/04/21 15:11:46;;;;;;;;;;;33.30;29.60;;;;;;5053247;28;20295;-77
2022/04/21 15:14:12;;;;;;;;;;;34.30;29.50;;;;;;5052004;28;20420;-77
2022/04/21 15:16:37;;;;;;;;;;;34.00;29.10;;;;;;5053226;28;19959;-76
2022/04/21 15:19:03;;;;;;;;;;;33.60;29.90;;;;;;5053181;28;19905;-78
2022/04/21 15:21:29;;;;;;;;;;;33.50;30.00;;;;;;5053280;28;19912;-77